createdAt,value
2022-11-21T00:03:00.286Z,12.27
2022-11-21T00:08:02.101Z,12.90
2022-11-21T00:13:04.091Z,12.80
2022-11-21T00:18:05.909Z,12.77
2022-11-21T00:23:08.132Z,13.15
2022-11-21T00:28:09.925Z,13.27
2022-11-21T00:33:11.890Z,11.75
2022-11-21T00:38:13.877Z,12.48
2022-11-21T00:43:15.668Z,12.13
2022-11-21T00:48:17.638Z,13.25
2022-11-21T00:53:19.432Z,13.38
2022-11-21T00:58:21.247Z,13.85
2022-11-21T01:03:23.111Z,13.43
2022-11-21T01:08:24.928Z,13.00
2022-11-21T01:13:26.772Z,13.00
2022-11-21T01:18:28.723Z,13.25
2022-11-21T01:23:30.534Z,14.50
2022-11-21T01:28:32.651Z,14.05
2022-11-21T01:33:35.034Z,13.27
2022-11-21T01:38:37.020Z,14.70
2022-11-21T01:43:38.997Z,14.05
2022-11-21T01:48:40.761Z,13.32
2022-11-21T01:53:44.275Z,13.60
2022-11-21T01:58:47.553Z,13.27
2022-11-21T02:03:49.614Z,13.70
2022-11-21T02:08:51.527Z,14.70
2022-11-21T02:13:53.399Z,14.07
2022-11-21T02:18:55.299Z,13.90
2022-11-21T02:24:01.233Z,14.07
2022-11-21T02:29:03.171Z,16.48
2022-11-21T02:34:05.109Z,15.65
2022-11-21T02:39:07.647Z,15.60
2022-11-21T02:44:13.278Z,15.10
2022-11-21T02:49:16.863Z,14.50
2022-11-21T02:54:18.664Z,15.05
2022-11-21T02:59:20.474Z,14.93
2022-11-21T03:04:22.264Z,15.15
2022-11-21T03:09:24.078Z,15.82
2022-11-21T03:14:26.322Z,15.50
2022-11-21T03:19:28.667Z,16.38
2022-11-21T03:24:30.623Z,16.00
2022-11-21T03:29:32.475Z,16.48
2022-11-21T03:34:34.558Z,18.33
2022-11-21T03:39:36.512Z,16.27
2022-11-21T03:44:38.508Z,17.83
2022-11-21T03:49:40.287Z,18.48
2022-11-21T03:54:42.065Z,17.23
2022-11-21T03:59:43.891Z,16.73
2022-11-21T04:04:45.714Z,17.25
2022-11-21T04:09:47.505Z,17.40
2022-11-21T04:14:49.431Z,16.30
2022-11-21T04:19:51.193Z,18.63
2022-11-21T04:24:52.999Z,17.58
2022-11-21T04:29:54.821Z,17.20
2022-11-21T04:34:56.782Z,17.70
2022-11-21T04:39:58.602Z,17.25
2022-11-21T04:45:00.423Z,17.17
2022-11-21T04:50:02.232Z,17.55
2022-11-21T04:55:04.618Z,18.33
2022-11-21T05:00:06.856Z,18.93
2022-11-21T05:05:09.010Z,19.40
2022-11-21T05:10:10.965Z,18.30
2022-11-21T05:15:12.881Z,21.20
2022-11-21T05:25:17.663Z,18.00
2022-11-21T05:30:19.491Z,19.45
2022-11-21T05:35:21.288Z,19.83
2022-11-21T05:40:23.343Z,19.85
2022-11-21T05:45:25.127Z,17.85
2022-11-21T05:50:26.948Z,19.17
2022-11-21T05:55:28.746Z,17.92
2022-11-21T06:00:30.552Z,16.58
2022-11-21T06:05:32.325Z,18.15
2022-11-21T06:10:34.098Z,18.42
2022-11-21T06:15:37.187Z,20.05
2022-11-21T06:25:40.675Z,19.27
2022-11-21T06:30:42.506Z,19.70
2022-11-21T06:35:44.308Z,20.25
2022-11-21T06:40:46.163Z,21.27
2022-11-21T06:45:47.961Z,20.40
2022-11-21T06:50:49.743Z,21.38
2022-11-21T06:55:51.661Z,20.27
2022-11-21T07:00:53.779Z,19.90
2022-11-21T07:05:55.622Z,21.20
2022-11-21T07:11:24.032Z,18.92
2022-11-21T07:16:22.924Z,19.25
2022-11-21T07:21:24.738Z,17.85
2022-11-21T07:26:26.571Z,18.70
2022-11-21T07:31:28.392Z,19.02
2022-11-21T07:36:32.516Z,18.85
2022-11-21T07:41:34.518Z,18.27
2022-11-21T07:46:36.286Z,18.95
2022-11-21T07:51:38.074Z,19.08
2022-11-21T07:56:39.879Z,19.77
2022-11-21T08:01:45.405Z,20.88
2022-11-21T08:06:47.553Z,22.27
2022-11-21T08:11:49.327Z,24.10
2022-11-21T08:16:51.819Z,23.65
2022-11-21T08:21:53.644Z,24.80
2022-11-21T08:26:55.567Z,24.20
2022-11-21T08:31:57.375Z,25.30
2022-11-21T08:36:59.195Z,24.20
2022-11-21T08:42:01.034Z,26.67
2022-11-21T08:47:02.838Z,26.23
2022-11-21T08:52:04.695Z,27.38
2022-11-21T08:57:06.494Z,27.80
2022-11-21T09:02:10.263Z,27.45
2022-11-21T09:07:12.177Z,28.38
2022-11-21T09:12:14.042Z,26.42
2022-11-21T09:17:16.618Z,27.98
2022-11-21T09:22:18.400Z,27.60
2022-11-21T09:27:20.218Z,23.67
2022-11-21T09:32:22.166Z,22.83
2022-11-21T09:37:23.978Z,21.02
2022-11-21T09:42:28.545Z,19.25
2022-11-21T09:47:31.608Z,18.85
2022-11-21T09:52:36.428Z,17.73
2022-11-21T09:57:38.225Z,16.77
2022-11-21T10:02:40.033Z,17.27
2022-11-21T10:07:42.768Z,16.52
2022-11-21T10:12:50.514Z,16.08
2022-11-21T10:18:07.541Z,15.80
2022-11-21T10:23:09.343Z,16.05
2022-11-21T10:28:16.345Z,16.45
2022-11-21T10:33:23.522Z,16.45
2022-11-21T10:38:26.411Z,16.73
2022-11-21T10:43:31.064Z,15.02
2022-11-21T10:48:32.965Z,15.68
2022-11-21T10:53:34.823Z,14.65
2022-11-21T10:58:40.618Z,15.68
2022-11-21T11:03:45.660Z,15.25
2022-11-21T11:08:58.624Z,15.02
2022-11-21T11:14:01.834Z,14.35
2022-11-21T11:19:16.428Z,14.55
2022-11-21T11:24:18.230Z,14.23
2022-11-21T11:29:24.377Z,13.45
2022-11-21T11:34:37.743Z,13.48
2022-11-21T11:39:57.938Z,13.02
2022-11-21T11:44:59.700Z,12.52
2022-11-21T11:50:10.653Z,12.15
2022-11-21T11:55:20.296Z,11.52
2022-11-21T12:00:40.672Z,11.45
2022-11-21T12:05:51.986Z,11.82
2022-11-21T12:10:58.122Z,12.80
2022-11-21T12:16:08.501Z,12.55
2022-11-21T12:21:14.786Z,12.82
2022-11-21T12:26:16.597Z,13.15
2022-11-21T12:31:35.660Z,14.23
2022-11-21T12:36:49.551Z,12.13
2022-11-21T12:42:03.987Z,10.93
2022-11-21T12:47:12.050Z,11.10
2022-11-21T12:52:19.739Z,10.55
2022-11-21T12:57:27.311Z,10.30
2022-11-21T13:02:32.090Z,10.43
2022-11-21T13:07:34.029Z,10.07
2022-11-21T13:12:50.097Z,9.07
2022-11-21T13:17:51.873Z,9.50
2022-11-21T13:22:57.962Z,9.30
2022-11-21T13:28:11.880Z,9.27
2022-11-21T13:33:32.385Z,9.00
2022-11-21T13:38:54.425Z,8.55
2022-11-21T13:44:16.192Z,7.78
2022-11-21T13:49:21.278Z,8.25
2022-11-21T13:54:45.363Z,8.20
2022-11-21T13:59:49.938Z,8.35
2022-11-21T14:04:59.132Z,8.93
2022-11-21T14:10:02.314Z,8.23
2022-11-21T14:15:04.117Z,8.07
2022-11-21T14:20:14.666Z,8.23
2022-11-21T14:25:20.070Z,8.20
2022-11-21T14:30:35.597Z,8.68
2022-11-21T14:35:39.945Z,8.55
2022-11-21T14:40:41.803Z,8.98
2022-11-21T14:45:49.307Z,9.10
2022-11-21T14:50:51.092Z,9.45
2022-11-21T14:55:56.946Z,9.40
2022-11-21T15:01:19.655Z,9.52
2022-11-21T15:06:21.539Z,10.00
2022-11-21T15:11:24.458Z,9.98
2022-11-21T15:16:26.491Z,9.50
2022-11-21T15:21:28.282Z,10.68
2022-11-21T15:26:33.734Z,10.68
2022-11-21T15:31:35.572Z,11.15
2022-11-21T15:36:37.400Z,13.82
2022-11-21T15:41:39.201Z,16.33
2022-11-21T15:46:41.007Z,15.57
2022-11-21T15:52:06.267Z,16.85
2022-11-21T15:57:05.613Z,18.10
2022-11-21T16:02:10.790Z,18.73
2022-11-21T16:07:12.644Z,16.98
2022-11-21T16:12:14.542Z,17.38
2022-11-21T16:17:16.355Z,18.27
2022-11-21T16:22:18.270Z,17.80
2022-11-21T16:27:20.068Z,19.20
2022-11-21T16:32:21.888Z,20.08
2022-11-21T16:37:23.752Z,20.30
2022-11-21T16:42:25.567Z,19.42
2022-11-21T16:47:27.396Z,18.15
2022-11-21T16:52:32.928Z,18.52
2022-11-21T16:57:35.013Z,18.80
2022-11-21T17:02:36.885Z,19.10
2022-11-21T17:07:38.782Z,17.00
2022-11-21T17:12:42.151Z,16.67
2022-11-21T17:22:45.606Z,15.18
2022-11-21T17:27:47.424Z,15.68
2022-11-21T17:32:49.243Z,15.98
2022-11-21T17:37:51.054Z,15.93
2022-11-21T17:42:52.890Z,17.55
2022-11-21T17:47:54.710Z,16.38
2022-11-21T17:52:57.713Z,15.30
2022-11-21T17:57:59.510Z,14.60
2022-11-21T18:03:01.341Z,13.55
2022-11-21T18:08:03.180Z,14.20
2022-11-21T18:13:04.981Z,15.02
2022-11-21T18:18:06.774Z,14.68
2022-11-21T18:23:08.595Z,14.55
2022-11-21T18:28:10.429Z,14.30
2022-11-21T18:33:16.034Z,15.43
2022-11-21T18:38:46.820Z,15.73
2022-11-21T18:43:43.139Z,15.90
2022-11-21T18:49:02.127Z,16.50
2022-11-21T18:54:07.602Z,16.40
2022-11-21T18:59:09.468Z,17.00
2022-11-21T19:04:11.276Z,16.25
2022-11-21T19:09:13.102Z,17.10
2022-11-21T19:14:14.905Z,15.55
2022-11-21T19:24:38.840Z,14.80
2022-11-21T19:29:40.655Z,15.35
2022-11-21T19:34:42.475Z,17.05
2022-11-21T19:39:44.299Z,16.80
2022-11-21T19:44:46.115Z,15.80
2022-11-21T19:49:47.917Z,18.58
2022-11-21T19:54:49.714Z,17.38
2022-11-21T19:59:51.513Z,15.50
2022-11-21T20:04:53.305Z,16.02
2022-11-21T20:09:55.099Z,17.33
2022-11-21T20:14:56.932Z,15.80
2022-11-21T20:19:58.756Z,17.67
2022-11-21T20:25:00.562Z,16.60
2022-11-21T20:30:02.410Z,14.68
2022-11-21T20:35:04.387Z,16.60
2022-11-21T20:40:06.506Z,17.33
2022-11-21T20:51:14.697Z,15.40
2022-11-21T20:55:52.219Z,16.05
2022-11-21T21:00:54.034Z,15.70
2022-11-21T21:05:56.895Z,15.50
2022-11-21T21:11:06.727Z,13.48
2022-11-21T21:16:11.401Z,14.02
2022-11-21T21:21:17.189Z,14.15
2022-11-21T21:26:20.824Z,13.60
2022-11-21T21:31:23.502Z,13.48
2022-11-21T21:36:25.995Z,13.55
2022-11-21T21:41:30.733Z,13.13
2022-11-21T21:46:32.726Z,13.88
2022-11-21T21:51:34.753Z,13.70
2022-11-21T21:56:36.758Z,12.95
2022-11-21T22:01:38.782Z,13.45
2022-11-21T22:06:40.788Z,13.25
2022-11-21T22:11:42.606Z,13.35
2022-11-21T22:16:44.426Z,12.77
2022-11-21T22:21:47.215Z,12.40
2022-11-21T22:26:49.151Z,13.32
2022-11-21T22:31:51.159Z,12.27
2022-11-21T22:36:52.983Z,12.43
2022-11-21T22:41:59.664Z,12.88
2022-11-21T22:47:01.826Z,12.40
2022-11-21T22:52:03.686Z,11.85
2022-11-21T22:57:05.537Z,12.43
2022-11-21T23:02:07.446Z,13.23
2022-11-21T23:07:09.463Z,12.75
2022-11-21T23:12:11.292Z,12.32
2022-11-21T23:17:13.063Z,12.43
2022-11-21T23:22:14.965Z,13.13
2022-11-21T23:27:16.841Z,13.85
2022-11-21T23:32:18.679Z,12.63
2022-11-21T23:37:20.622Z,13.32
2022-11-21T23:42:22.461Z,13.57
2022-11-21T23:47:24.258Z,13.30
2022-11-21T23:52:26.165Z,13.95
2022-11-21T23:57:27.981Z,14.25
